sensor_id;sensor_type;location;lat;lon;timestamp;P1;durP1;ratioP1;P2;durP2;ratioP2
73733;SDS011;62039;50.000;9.064;2023-03-14T00:00:18;0.73;;;0.70;;
73733;SDS011;62039;50.000;9.064;2023-03-14T00:02:44;1.17;;;0.60;;
73733;SDS011;62039;50.000;9.064;2023-03-14T00:05:11;1.27;;;0.73;;
73733;SDS011;62039;50.000;9.064;2023-03-14T00:07:38;0.73;;;0.57;;
73733;SDS011;62039;50.000;9.064;2023-03-14T00:10:06;0.83;;;0.60;;
73733;SDS011;62039;50.000;9.064;2023-03-14T00:12:37;0.80;;;0.50;;
73733;SDS011;62039;50.000;9.064;2023-03-14T00:15:05;0.50;;;0.50;;
73733;SDS011;62039;50.000;9.064;2023-03-14T00:17:32;0.50;;;0.50;;
73733;SDS011;62039;50.000;9.064;2023-03-14T00:19:59;0.90;;;0.70;;
73733;SDS011;62039;50.000;9.064;2023-03-14T00:22:26;1.67;;;0.70;;
73733;SDS011;62039;50.000;9.064;2023-03-14T00:24:53;0.83;;;0.60;;
73733;SDS011;62039;50.000;9.064;2023-03-14T00:27:19;1.23;;;0.73;;
73733;SDS011;62039;50.000;9.064;2023-03-14T00:29:47;2.23;;;0.70;;
73733;SDS011;62039;50.000;9.064;2023-03-14T00:32:14;0.80;;;0.60;;
73733;SDS011;62039;50.000;9.064;2023-03-14T00:34:40;2.27;;;0.80;;
73733;SDS011;62039;50.000;9.064;2023-03-14T00:37:07;1.10;;;0.80;;
73733;SDS011;62039;50.000;9.064;2023-03-14T00:39:33;0.97;;;0.70;;
73733;SDS011;62039;50.000;9.064;2023-03-14T00:42:00;1.10;;;0.70;;
73733;SDS011;62039;50.000;9.064;2023-03-14T00:44:26;1.90;;;0.87;;
73733;SDS011;62039;50.000;9.064;2023-03-14T00:46:54;0.87;;;0.60;;
73733;SDS011;62039;50.000;9.064;2023-03-14T00:49:21;1.70;;;1.07;;
73733;SDS011;62039;50.000;9.064;2023-03-14T00:51:47;4.47;;;1.07;;
73733;SDS011;62039;50.000;9.064;2023-03-14T00:54:14;1.57;;;1.00;;
73733;SDS011;62039;50.000;9.064;2023-03-14T00:56:41;2.97;;;0.90;;
73733;SDS011;62039;50.000;9.064;2023-03-14T00:59:07;2.00;;;0.80;;
73733;SDS011;62039;50.000;9.064;2023-03-14T01:01:34;1.77;;;0.67;;
73733;SDS011;62039;50.000;9.064;2023-03-14T01:04:02;1.93;;;0.80;;
73733;SDS011;62039;50.000;9.064;2023-03-14T01:06:28;1.70;;;0.70;;
73733;SDS011;62039;50.000;9.064;2023-03-14T01:08:55;1.13;;;0.70;;
73733;SDS011;62039;50.000;9.064;2023-03-14T01:11:23;2.23;;;0.60;;
73733;SDS011;62039;50.000;9.064;2023-03-14T01:13:52;3.23;;;0.77;;
73733;SDS011;62039;50.000;9.064;2023-03-14T01:16:19;2.30;;;0.90;;
73733;SDS011;62039;50.000;9.064;2023-03-14T01:18:46;1.17;;;0.80;;
73733;SDS011;62039;50.000;9.064;2023-03-14T01:21:15;1.77;;;0.80;;
73733;SDS011;62039;50.000;9.064;2023-03-14T01:23:44;1.57;;;1.03;;
73733;SDS011;62039;50.000;9.064;2023-03-14T01:26:11;1.80;;;0.90;;
73733;SDS011;62039;50.000;9.064;2023-03-14T01:28:39;1.13;;;0.67;;
73733;SDS011;62039;50.000;9.064;2023-03-14T01:31:07;1.37;;;0.70;;
73733;SDS011;62039;50.000;9.064;2023-03-14T01:33:35;2.20;;;0.90;;
73733;SDS011;62039;50.000;9.064;2023-03-14T01:36:01;1.73;;;0.70;;
73733;SDS011;62039;50.000;9.064;2023-03-14T01:38:29;2.47;;;1.00;;
73733;SDS011;62039;50.000;9.064;2023-03-14T01:40:56;1.03;;;0.60;;
73733;SDS011;62039;50.000;9.064;2023-03-14T01:43:24;2.20;;;0.80;;
73733;SDS011;62039;50.000;9.064;2023-03-14T01:48:48;2.17;;;0.80;;
73733;SDS011;62039;50.000;9.064;2023-03-14T01:51:19;1.77;;;1.17;;
73733;SDS011;62039;50.000;9.064;2023-03-14T01:53:51;1.40;;;0.70;;
73733;SDS011;62039;50.000;9.064;2023-03-14T01:56:20;1.17;;;0.60;;
73733;SDS011;62039;50.000;9.064;2023-03-14T01:58:48;1.60;;;0.70;;
73733;SDS011;62039;50.000;9.064;2023-03-14T02:01:18;1.97;;;0.77;;
73733;SDS011;62039;50.000;9.064;2023-03-14T02:03:48;1.37;;;0.60;;
73733;SDS011;62039;50.000;9.064;2023-03-14T02:06:19;1.00;;;0.70;;
73733;SDS011;62039;50.000;9.064;2023-03-14T02:08:48;1.57;;;0.80;;
73733;SDS011;62039;50.000;9.064;2023-03-14T02:11:17;1.87;;;1.03;;
73733;SDS011;62039;50.000;9.064;2023-03-14T02:13:44;2.40;;;0.80;;
73733;SDS011;62039;50.000;9.064;2023-03-14T02:16:11;1.70;;;0.80;;
73733;SDS011;62039;50.000;9.064;2023-03-14T02:18:38;2.00;;;0.90;;
73733;SDS011;62039;50.000;9.064;2023-03-14T02:21:05;1.73;;;0.60;;
73733;SDS011;62039;50.000;9.064;2023-03-14T02:23:38;2.20;;;0.70;;
73733;SDS011;62039;50.000;9.064;2023-03-14T02:26:15;2.27;;;0.90;;
73733;SDS011;62039;50.000;9.064;2023-03-14T02:28:48;2.73;;;0.80;;
73733;SDS011;62039;50.000;9.064;2023-03-14T02:31:16;1.60;;;0.90;;
73733;SDS011;62039;50.000;9.064;2023-03-14T02:33:42;1.60;;;0.80;;
73733;SDS011;62039;50.000;9.064;2023-03-14T02:36:10;1.20;;;0.80;;
73733;SDS011;62039;50.000;9.064;2023-03-14T02:38:40;0.93;;;0.60;;
73733;SDS011;62039;50.000;9.064;2023-03-14T02:41:12;1.83;;;0.63;;
73733;SDS011;62039;50.000;9.064;2023-03-14T02:43:39;2.17;;;1.13;;
73733;SDS011;62039;50.000;9.064;2023-03-14T02:46:08;3.07;;;1.30;;
73733;SDS011;62039;50.000;9.064;2023-03-14T02:48:39;2.67;;;1.00;;
73733;SDS011;62039;50.000;9.064;2023-03-14T02:51:07;1.77;;;0.93;;
73733;SDS011;62039;50.000;9.064;2023-03-14T02:53:34;1.37;;;0.87;;
73733;SDS011;62039;50.000;9.064;2023-03-14T02:56:02;1.80;;;1.00;;
73733;SDS011;62039;50.000;9.064;2023-03-14T02:58:30;2.93;;;0.90;;
73733;SDS011;62039;50.000;9.064;2023-03-14T03:00:56;1.77;;;0.97;;
73733;SDS011;62039;50.000;9.064;2023-03-14T03:03:24;1.80;;;0.77;;
73733;SDS011;62039;50.000;9.064;2023-03-14T03:05:51;1.87;;;0.63;;
73733;SDS011;62039;50.000;9.064;2023-03-14T03:08:19;1.90;;;0.90;;
73733;SDS011;62039;50.000;9.064;2023-03-14T03:10:47;1.53;;;0.80;;
73733;SDS011;62039;50.000;9.064;2023-03-14T03:13:14;1.03;;;0.80;;
73733;SDS011;62039;50.000;9.064;2023-03-14T03:15:41;2.90;;;1.00;;
73733;SDS011;62039;50.000;9.064;2023-03-14T03:18:07;1.37;;;1.00;;
73733;SDS011;62039;50.000;9.064;2023-03-14T03:20:36;1.97;;;0.90;;
73733;SDS011;62039;50.000;9.064;2023-03-14T03:23:03;2.07;;;0.77;;
73733;SDS011;62039;50.000;9.064;2023-03-14T03:25:31;1.67;;;0.70;;
73733;SDS011;62039;50.000;9.064;2023-03-14T03:27:58;1.43;;;0.60;;
73733;SDS011;62039;50.000;9.064;2023-03-14T03:30:25;1.50;;;1.00;;
73733;SDS011;62039;50.000;9.064;2023-03-14T03:32:51;2.17;;;0.90;;
73733;SDS011;62039;50.000;9.064;2023-03-14T03:35:18;3.03;;;1.17;;
73733;SDS011;62039;50.000;9.064;2023-03-14T03:37:46;1.87;;;1.03;;
73733;SDS011;62039;50.000;9.064;2023-03-14T03:40:12;0.73;;;0.53;;
73733;SDS011;62039;50.000;9.064;2023-03-14T03:42:39;1.17;;;0.60;;
73733;SDS011;62039;50.000;9.064;2023-03-14T03:45:06;0.80;;;0.70;;
73733;SDS011;62039;50.000;9.064;2023-03-14T03:47:33;1.10;;;0.73;;
73733;SDS011;62039;50.000;9.064;2023-03-14T03:50:00;2.40;;;0.83;;
73733;SDS011;62039;50.000;9.064;2023-03-14T03:52:26;1.33;;;0.73;;
73733;SDS011;62039;50.000;9.064;2023-03-14T03:54:54;2.77;;;1.07;;
73733;SDS011;62039;50.000;9.064;2023-03-14T03:57:21;1.63;;;0.73;;
73733;SDS011;62039;50.000;9.064;2023-03-14T03:59:47;2.10;;;0.90;;
73733;SDS011;62039;50.000;9.064;2023-03-14T04:02:14;1.40;;;0.90;;
73733;SDS011;62039;50.000;9.064;2023-03-14T04:04:41;1.13;;;0.73;;
73733;SDS011;62039;50.000;9.064;2023-03-14T04:07:07;1.17;;;0.70;;
73733;SDS011;62039;50.000;9.064;2023-03-14T04:09:34;1.20;;;0.63;;
73733;SDS011;62039;50.000;9.064;2023-03-14T04:12:02;2.07;;;1.00;;
73733;SDS011;62039;50.000;9.064;2023-03-14T04:14:28;1.17;;;0.70;;
73733;SDS011;62039;50.000;9.064;2023-03-14T04:16:55;1.53;;;0.70;;
73733;SDS011;62039;50.000;9.064;2023-03-14T04:19:21;2.40;;;1.03;;
73733;SDS011;62039;50.000;9.064;2023-03-14T04:21:48;2.10;;;0.80;;
73733;SDS011;62039;50.000;9.064;2023-03-14T04:24:14;2.33;;;0.90;;
73733;SDS011;62039;50.000;9.064;2023-03-14T04:26:41;1.10;;;0.80;;
73733;SDS011;62039;50.000;9.064;2023-03-14T04:29:09;1.63;;;0.80;;
73733;SDS011;62039;50.000;9.064;2023-03-14T04:31:38;2.83;;;0.90;;
73733;SDS011;62039;50.000;9.064;2023-03-14T04:34:05;1.00;;;0.60;;
73733;SDS011;62039;50.000;9.064;2023-03-14T04:36:31;1.00;;;0.70;;
73733;SDS011;62039;50.000;9.064;2023-03-14T04:38:58;1.60;;;0.80;;
73733;SDS011;62039;50.000;9.064;2023-03-14T04:41:24;2.10;;;0.80;;
73733;SDS011;62039;50.000;9.064;2023-03-14T04:43:51;1.70;;;0.70;;
73733;SDS011;62039;50.000;9.064;2023-03-14T04:46:19;1.40;;;0.80;;
73733;SDS011;62039;50.000;9.064;2023-03-14T04:48:46;2.03;;;0.80;;
73733;SDS011;62039;50.000;9.064;2023-03-14T04:51:12;1.20;;;0.70;;
73733;SDS011;62039;50.000;9.064;2023-03-14T04:53:39;2.30;;;0.70;;
73733;SDS011;62039;50.000;9.064;2023-03-14T04:56:05;1.40;;;0.80;;
73733;SDS011;62039;50.000;9.064;2023-03-14T04:58:33;1.80;;;0.90;;
73733;SDS011;62039;50.000;9.064;2023-03-14T05:01:01;1.40;;;0.73;;
73733;SDS011;62039;50.000;9.064;2023-03-14T05:03:29;1.47;;;0.83;;
73733;SDS011;62039;50.000;9.064;2023-03-14T05:05:56;2.50;;;1.37;;
73733;SDS011;62039;50.000;9.064;2023-03-14T05:08:22;1.57;;;1.30;;
73733;SDS011;62039;50.000;9.064;2023-03-14T05:10:51;2.00;;;0.90;;
73733;SDS011;62039;50.000;9.064;2023-03-14T05:13:18;1.63;;;0.87;;
73733;SDS011;62039;50.000;9.064;2023-03-14T05:15:45;1.47;;;0.80;;
73733;SDS011;62039;50.000;9.064;2023-03-14T05:18:11;1.70;;;0.70;;
73733;SDS011;62039;50.000;9.064;2023-03-14T05:20:39;2.87;;;0.90;;
73733;SDS011;62039;50.000;9.064;2023-03-14T05:23:06;1.87;;;0.70;;
73733;SDS011;62039;50.000;9.064;2023-03-14T05:25:33;1.53;;;0.70;;
73733;SDS011;62039;50.000;9.064;2023-03-14T05:27:59;1.23;;;0.80;;
73733;SDS011;62039;50.000;9.064;2023-03-14T05:30:26;1.67;;;0.70;;
73733;SDS011;62039;50.000;9.064;2023-03-14T05:32:52;1.67;;;0.80;;
73733;SDS011;62039;50.000;9.064;2023-03-14T05:35:19;1.33;;;0.83;;
73733;SDS011;62039;50.000;9.064;2023-03-14T05:37:47;1.27;;;0.70;;
73733;SDS011;62039;50.000;9.064;2023-03-14T05:40:14;1.47;;;0.70;;
73733;SDS011;62039;50.000;9.064;2023-03-14T05:42:41;1.10;;;0.60;;
73733;SDS011;62039;50.000;9.064;2023-03-14T05:45:07;2.17;;;0.87;;
73733;SDS011;62039;50.000;9.064;2023-03-14T05:47:34;3.07;;;1.20;;
73733;SDS011;62039;50.000;9.064;2023-03-14T05:50:01;1.30;;;0.80;;
73733;SDS011;62039;50.000;9.064;2023-03-14T05:52:27;2.10;;;0.97;;
73733;SDS011;62039;50.000;9.064;2023-03-14T05:54:55;1.27;;;0.87;;
73733;SDS011;62039;50.000;9.064;2023-03-14T05:57:22;1.83;;;0.80;;
73733;SDS011;62039;50.000;9.064;2023-03-14T05:59:48;0.90;;;0.60;;
73733;SDS011;62039;50.000;9.064;2023-03-14T06:02:15;2.07;;;0.83;;
73733;SDS011;62039;50.000;9.064;2023-03-14T06:04:41;1.80;;;1.00;;
73733;SDS011;62039;50.000;9.064;2023-03-14T06:07:08;1.43;;;0.70;;
73733;SDS011;62039;50.000;9.064;2023-03-14T06:09:34;1.77;;;0.50;;
73733;SDS011;62039;50.000;9.064;2023-03-14T06:12:03;1.00;;;0.60;;
73733;SDS011;62039;50.000;9.064;2023-03-14T06:14:29;1.67;;;0.80;;
73733;SDS011;62039;50.000;9.064;2023-03-14T06:16:56;1.57;;;0.90;;
73733;SDS011;62039;50.000;9.064;2023-03-14T06:19:22;1.30;;;0.70;;
73733;SDS011;62039;50.000;9.064;2023-03-14T06:21:49;1.47;;;0.70;;
73733;SDS011;62039;50.000;9.064;2023-03-14T06:24:16;2.20;;;0.70;;
73733;SDS011;62039;50.000;9.064;2023-03-14T06:26:42;1.50;;;0.60;;
73733;SDS011;62039;50.000;9.064;2023-03-14T06:29:10;1.23;;;0.60;;
73733;SDS011;62039;50.000;9.064;2023-03-14T06:31:37;0.60;;;0.47;;
73733;SDS011;62039;50.000;9.064;2023-03-14T06:34:03;1.40;;;0.60;;
73733;SDS011;62039;50.000;9.064;2023-03-14T06:36:30;1.63;;;0.80;;
73733;SDS011;62039;50.000;9.064;2023-03-14T06:38:56;1.43;;;0.70;;
73733;SDS011;62039;50.000;9.064;2023-03-14T06:41:23;1.87;;;0.70;;
73733;SDS011;62039;50.000;9.064;2023-03-14T06:43:49;1.50;;;0.77;;
73733;SDS011;62039;50.000;9.064;2023-03-14T06:46:17;0.90;;;0.60;;
73733;SDS011;62039;50.000;9.064;2023-03-14T06:48:44;1.17;;;0.50;;
73733;SDS011;62039;50.000;9.064;2023-03-14T06:51:10;1.63;;;0.60;;
73733;SDS011;62039;50.000;9.064;2023-03-14T06:53:37;2.30;;;0.93;;
73733;SDS011;62039;50.000;9.064;2023-03-14T06:56:04;0.97;;;0.60;;
73733;SDS011;62039;50.000;9.064;2023-03-14T06:58:31;1.70;;;0.70;;
73733;SDS011;62039;50.000;9.064;2023-03-14T07:00:58;0.90;;;0.70;;
73733;SDS011;62039;50.000;9.064;2023-03-14T07:03:26;2.27;;;0.70;;
73733;SDS011;62039;50.000;9.064;2023-03-14T07:05:52;0.97;;;0.50;;
73733;SDS011;62039;50.000;9.064;2023-03-14T07:08:19;0.90;;;0.73;;
73733;SDS011;62039;50.000;9.064;2023-03-14T07:10:46;0.50;;;0.47;;
73733;SDS011;62039;50.000;9.064;2023-03-14T07:13:12;0.90;;;0.70;;
73733;SDS011;62039;50.000;9.064;2023-03-14T07:15:39;1.90;;;0.80;;
73733;SDS011;62039;50.000;9.064;2023-03-14T07:18:05;0.83;;;0.60;;
73733;SDS011;62039;50.000;9.064;2023-03-14T07:20:33;1.10;;;0.43;;
73733;SDS011;62039;50.000;9.064;2023-03-14T07:23:00;1.70;;;0.70;;
73733;SDS011;62039;50.000;9.064;2023-03-14T07:25:26;2.70;;;0.97;;
73733;SDS011;62039;50.000;9.064;2023-03-14T07:27:53;1.13;;;0.77;;
73733;SDS011;62039;50.000;9.064;2023-03-14T07:30:19;0.47;;;0.47;;
73733;SDS011;62039;50.000;9.064;2023-03-14T07:32:46;1.00;;;0.70;;
73733;SDS011;62039;50.000;9.064;2023-03-14T07:35:13;0.50;;;0.50;;
73733;SDS011;62039;50.000;9.064;2023-03-14T07:37:40;1.83;;;0.60;;
73733;SDS011;62039;50.000;9.064;2023-03-14T07:40:07;1.80;;;0.73;;
73733;SDS011;62039;50.000;9.064;2023-03-14T07:42:35;1.33;;;0.70;;
73733;SDS011;62039;50.000;9.064;2023-03-14T07:45:01;0.70;;;0.57;;
73733;SDS011;62039;50.000;9.064;2023-03-14T07:47:28;1.30;;;0.67;;
73733;SDS011;62039;50.000;9.064;2023-03-14T07:49:54;1.33;;;0.70;;
73733;SDS011;62039;50.000;9.064;2023-03-14T07:52:21;1.40;;;0.80;;
73733;SDS011;62039;50.000;9.064;2023-03-14T07:54:49;1.93;;;1.20;;
73733;SDS011;62039;50.000;9.064;2023-03-14T07:57:16;2.43;;;1.30;;
73733;SDS011;62039;50.000;9.064;2023-03-14T07:59:42;2.70;;;1.00;;
73733;SDS011;62039;50.000;9.064;2023-03-14T08:02:09;1.40;;;0.87;;
73733;SDS011;62039;50.000;9.064;2023-03-14T08:04:37;1.60;;;1.17;;
73733;SDS011;62039;50.000;9.064;2023-03-14T08:07:04;1.93;;;0.70;;
73733;SDS011;62039;50.000;9.064;2023-03-14T08:09:30;2.67;;;0.87;;
73733;SDS011;62039;50.000;9.064;2023-03-14T08:11:58;2.50;;;1.70;;
73733;SDS011;62039;50.000;9.064;2023-03-14T08:14:25;2.00;;;1.80;;
73733;SDS011;62039;50.000;9.064;2023-03-14T08:16:52;3.23;;;2.00;;
73733;SDS011;62039;50.000;9.064;2023-03-14T08:19:18;3.90;;;2.70;;
73733;SDS011;62039;50.000;9.064;2023-03-14T08:21:45;3.87;;;2.90;;
73733;SDS011;62039;50.000;9.064;2023-03-14T08:24:11;1.97;;;1.60;;
73733;SDS011;62039;50.000;9.064;2023-03-14T08:26:38;2.33;;;1.97;;
73733;SDS011;62039;50.000;9.064;2023-03-14T08:29:06;2.20;;;1.57;;
73733;SDS011;62039;50.000;9.064;2023-03-14T08:31:32;1.87;;;1.50;;
73733;SDS011;62039;50.000;9.064;2023-03-14T08:34:00;3.73;;;1.40;;
73733;SDS011;62039;50.000;9.064;2023-03-14T08:36:27;2.83;;;2.00;;
73733;SDS011;62039;50.000;9.064;2023-03-14T08:38:54;2.70;;;1.00;;
73733;SDS011;62039;50.000;9.064;2023-03-14T08:41:20;1.33;;;0.90;;
73733;SDS011;62039;50.000;9.064;2023-03-14T08:43:47;1.13;;;1.00;;
73733;SDS011;62039;50.000;9.064;2023-03-14T08:46:15;1.87;;;1.10;;
73733;SDS011;62039;50.000;9.064;2023-03-14T08:48:41;1.77;;;0.97;;
73733;SDS011;62039;50.000;9.064;2023-03-14T08:51:09;1.60;;;1.03;;
73733;SDS011;62039;50.000;9.064;2023-03-14T08:53:36;1.73;;;1.30;;
73733;SDS011;62039;50.000;9.064;2023-03-14T08:56:03;2.30;;;1.47;;
73733;SDS011;62039;50.000;9.064;2023-03-14T08:58:30;3.30;;;1.90;;
73733;SDS011;62039;50.000;9.064;2023-03-14T09:00:56;1.40;;;1.30;;
73733;SDS011;62039;50.000;9.064;2023-03-14T09:03:24;1.30;;;1.20;;
73733;SDS011;62039;50.000;9.064;2023-03-14T09:05:51;1.73;;;1.00;;
73733;SDS011;62039;50.000;9.064;2023-03-14T09:08:18;0.87;;;0.60;;
73733;SDS011;62039;50.000;9.064;2023-03-14T09:10:44;0.93;;;0.60;;
73733;SDS011;62039;50.000;9.064;2023-03-14T09:13:11;0.60;;;0.60;;
73733;SDS011;62039;50.000;9.064;2023-03-14T09:15:38;1.17;;;0.77;;
73733;SDS011;62039;50.000;9.064;2023-03-14T09:18:04;0.60;;;0.50;;
73733;SDS011;62039;50.000;9.064;2023-03-14T09:20:32;1.47;;;0.60;;
73733;SDS011;62039;50.000;9.064;2023-03-14T09:22:59;0.77;;;0.47;;
73733;SDS011;62039;50.000;9.064;2023-03-14T09:25:25;1.37;;;0.50;;
73733;SDS011;62039;50.000;9.064;2023-03-14T09:27:52;1.30;;;0.50;;
73733;SDS011;62039;50.000;9.064;2023-03-14T09:30:18;0.70;;;0.40;;
73733;SDS011;62039;50.000;9.064;2023-03-14T09:32:45;0.73;;;0.43;;
73733;SDS011;62039;50.000;9.064;2023-03-14T09:35:11;1.27;;;0.50;;
73733;SDS011;62039;50.000;9.064;2023-03-14T09:37:39;0.57;;;0.50;;
73733;SDS011;62039;50.000;9.064;2023-03-14T09:40:06;1.80;;;0.70;;
73733;SDS011;62039;50.000;9.064;2023-03-14T09:42:37;0.67;;;0.67;;
73733;SDS011;62039;50.000;9.064;2023-03-14T09:45:04;0.57;;;0.47;;
73733;SDS011;62039;50.000;9.064;2023-03-14T09:47:36;2.30;;;0.50;;
73733;SDS011;62039;50.000;9.064;2023-03-14T09:50:18;1.30;;;0.60;;
73733;SDS011;62039;50.000;9.064;2023-03-14T09:52:47;0.77;;;0.50;;
73733;SDS011;62039;50.000;9.064;2023-03-14T09:55:16;1.90;;;0.97;;
73733;SDS011;62039;50.000;9.064;2023-03-14T09:57:45;1.10;;;0.90;;
73733;SDS011;62039;50.000;9.064;2023-03-14T10:00:14;1.60;;;0.80;;
73733;SDS011;62039;50.000;9.064;2023-03-14T10:02:45;1.17;;;0.60;;
73733;SDS011;62039;50.000;9.064;2023-03-14T10:05:17;0.50;;;0.50;;
73733;SDS011;62039;50.000;9.064;2023-03-14T10:07:47;1.87;;;1.30;;
73733;SDS011;62039;50.000;9.064;2023-03-14T10:10:15;1.70;;;0.80;;
73733;SDS011;62039;50.000;9.064;2023-03-14T10:12:45;0.93;;;0.67;;
73733;SDS011;62039;50.000;9.064;2023-03-14T10:15:13;0.70;;;0.50;;
73733;SDS011;62039;50.000;9.064;2023-03-14T10:17:42;1.00;;;0.63;;
73733;SDS011;62039;50.000;9.064;2023-03-14T10:20:26;0.70;;;0.70;;
73733;SDS011;62039;50.000;9.064;2023-03-14T10:22:55;0.70;;;0.50;;
73733;SDS011;62039;50.000;9.064;2023-03-14T10:25:25;1.17;;;0.83;;
73733;SDS011;62039;50.000;9.064;2023-03-14T10:27:53;1.03;;;0.60;;
73733;SDS011;62039;50.000;9.064;2023-03-14T10:30:27;0.80;;;0.60;;
73733;SDS011;62039;50.000;9.064;2023-03-14T10:32:59;1.03;;;0.60;;
73733;SDS011;62039;50.000;9.064;2023-03-14T10:35:35;0.40;;;0.40;;
73733;SDS011;62039;50.000;9.064;2023-03-14T10:38:03;1.40;;;0.67;;
73733;SDS011;62039;50.000;9.064;2023-03-14T10:40:30;0.47;;;0.43;;
73733;SDS011;62039;50.000;9.064;2023-03-14T10:42:59;0.57;;;0.50;;
73733;SDS011;62039;50.000;9.064;2023-03-14T10:45:33;0.77;;;0.60;;
73733;SDS011;62039;50.000;9.064;2023-03-14T10:48:21;1.13;;;1.03;;
73733;SDS011;62039;50.000;9.064;2023-03-14T10:50:50;0.80;;;0.80;;
73733;SDS011;62039;50.000;9.064;2023-03-14T10:53:22;1.50;;;0.83;;
73733;SDS011;62039;50.000;9.064;2023-03-14T10:55:52;0.80;;;0.70;;
73733;SDS011;62039;50.000;9.064;2023-03-14T10:58:22;0.47;;;0.43;;
73733;SDS011;62039;50.000;9.064;2023-03-14T11:00:51;1.20;;;0.77;;
73733;SDS011;62039;50.000;9.064;2023-03-14T11:03:24;1.30;;;1.00;;
73733;SDS011;62039;50.000;9.064;2023-03-14T11:05:53;1.10;;;0.70;;
73733;SDS011;62039;50.000;9.064;2023-03-14T11:08:25;0.90;;;0.50;;
73733;SDS011;62039;50.000;9.064;2023-03-14T11:10:57;1.83;;;0.70;;
73733;SDS011;62039;50.000;9.064;2023-03-14T11:13:34;3.27;;;1.50;;
73733;SDS011;62039;50.000;9.064;2023-03-14T11:16:07;2.60;;;1.67;;
73733;SDS011;62039;50.000;9.064;2023-03-14T11:18:54;3.10;;;1.60;;
73733;SDS011;62039;50.000;9.064;2023-03-14T11:21:29;2.50;;;1.10;;
73733;SDS011;62039;50.000;9.064;2023-03-14T11:24:08;1.43;;;0.80;;
73733;SDS011;62039;50.000;9.064;2023-03-14T11:26:49;1.03;;;0.60;;
73733;SDS011;62039;50.000;9.064;2023-03-14T11:29:20;0.60;;;0.60;;
73733;SDS011;62039;50.000;9.064;2023-03-14T11:31:52;5.40;;;4.20;;
73733;SDS011;62039;50.000;9.064;2023-03-14T11:34:22;2.53;;;2.17;;
73733;SDS011;62039;50.000;9.064;2023-03-14T11:36:55;2.67;;;2.00;;
73733;SDS011;62039;50.000;9.064;2023-03-14T11:39:29;2.50;;;2.10;;
73733;SDS011;62039;50.000;9.064;2023-03-14T11:42:04;3.80;;;2.50;;
73733;SDS011;62039;50.000;9.064;2023-03-14T11:44:34;7.20;;;4.90;;
73733;SDS011;62039;50.000;9.064;2023-03-14T11:47:05;6.13;;;4.43;;
73733;SDS011;62039;50.000;9.064;2023-03-14T11:49:38;6.00;;;4.90;;
73733;SDS011;62039;50.000;9.064;2023-03-14T11:52:09;5.97;;;4.50;;
73733;SDS011;62039;50.000;9.064;2023-03-14T11:54:41;5.43;;;3.70;;
73733;SDS011;62039;50.000;9.064;2023-03-14T11:57:11;2.03;;;1.60;;
73733;SDS011;62039;50.000;9.064;2023-03-14T11:59:41;1.73;;;1.47;;
73733;SDS011;62039;50.000;9.064;2023-03-14T12:02:17;0.87;;;0.77;;
73733;SDS011;62039;50.000;9.064;2023-03-14T12:04:53;1.97;;;0.70;;
73733;SDS011;62039;50.000;9.064;2023-03-14T12:07:29;0.90;;;0.60;;
73733;SDS011;62039;50.000;9.064;2023-03-14T12:10:04;0.87;;;0.57;;
73733;SDS011;62039;50.000;9.064;2023-03-14T12:12:31;0.60;;;0.60;;
73733;SDS011;62039;50.000;9.064;2023-03-14T12:14:59;1.17;;;0.63;;
73733;SDS011;62039;50.000;9.064;2023-03-14T12:17:27;0.40;;;0.40;;
73733;SDS011;62039;50.000;9.064;2023-03-14T12:20:03;1.57;;;0.60;;
73733;SDS011;62039;50.000;9.064;2023-03-14T12:22:33;1.03;;;0.60;;
73733;SDS011;62039;50.000;9.064;2023-03-14T12:25:03;0.80;;;0.70;;
73733;SDS011;62039;50.000;9.064;2023-03-14T12:27:42;1.67;;;0.70;;
73733;SDS011;62039;50.000;9.064;2023-03-14T12:30:15;0.50;;;0.50;;
73733;SDS011;62039;50.000;9.064;2023-03-14T12:35:38;0.50;;;0.50;;
73733;SDS011;62039;50.000;9.064;2023-03-14T12:38:08;1.33;;;0.90;;
73733;SDS011;62039;50.000;9.064;2023-03-14T12:40:41;1.50;;;0.60;;
73733;SDS011;62039;50.000;9.064;2023-03-14T12:43:23;1.17;;;0.40;;
73733;SDS011;62039;50.000;9.064;2023-03-14T12:48:46;0.20;;;0.20;;
73733;SDS011;62039;50.000;9.064;2023-03-14T12:51:15;0.57;;;0.33;;
73733;SDS011;62039;50.000;9.064;2023-03-14T12:53:52;0.40;;;0.30;;
73733;SDS011;62039;50.000;9.064;2023-03-14T12:56:35;0.67;;;0.30;;
73733;SDS011;62039;50.000;9.064;2023-03-14T12:59:17;0.50;;;0.50;;
73733;SDS011;62039;50.000;9.064;2023-03-14T13:01:54;0.40;;;0.40;;
73733;SDS011;62039;50.000;9.064;2023-03-14T13:04:27;0.30;;;0.30;;
73733;SDS011;62039;50.000;9.064;2023-03-14T13:07:04;0.30;;;0.30;;
73733;SDS011;62039;50.000;9.064;2023-03-14T13:12:34;0.30;;;0.30;;
73733;SDS011;62039;50.000;9.064;2023-03-14T13:15:13;0.33;;;0.30;;
73733;SDS011;62039;50.000;9.064;2023-03-14T13:17:44;0.30;;;0.30;;
73733;SDS011;62039;50.000;9.064;2023-03-14T13:20:13;0.30;;;0.30;;
73733;SDS011;62039;50.000;9.064;2023-03-14T13:22:46;0.60;;;0.40;;
73733;SDS011;62039;50.000;9.064;2023-03-14T13:25:13;1.50;;;0.50;;
73733;SDS011;62039;50.000;9.064;2023-03-14T13:27:41;0.73;;;0.50;;
73733;SDS011;62039;50.000;9.064;2023-03-14T13:30:19;0.40;;;0.40;;
73733;SDS011;62039;50.000;9.064;2023-03-14T13:32:50;0.40;;;0.40;;
73733;SDS011;62039;50.000;9.064;2023-03-14T13:35:19;0.97;;;0.30;;
73733;SDS011;62039;50.000;9.064;2023-03-14T13:37:51;1.00;;;0.40;;
73733;SDS011;62039;50.000;9.064;2023-03-14T13:40:35;0.70;;;0.50;;
73733;SDS011;62039;50.000;9.064;2023-03-14T13:43:04;0.33;;;0.33;;
73733;SDS011;62039;50.000;9.064;2023-03-14T13:48:28;0.40;;;0.37;;
73733;SDS011;62039;50.000;9.064;2023-03-14T13:50:58;0.40;;;0.30;;
73733;SDS011;62039;50.000;9.064;2023-03-14T13:53:27;0.30;;;0.30;;
73733;SDS011;62039;50.000;9.064;2023-03-14T13:55:54;0.40;;;0.40;;
73733;SDS011;62039;50.000;9.064;2023-03-14T13:58:23;0.93;;;0.50;;
73733;SDS011;62039;50.000;9.064;2023-03-14T14:03:39;0.93;;;0.50;;
73733;SDS011;62039;50.000;9.064;2023-03-14T14:06:08;0.30;;;0.30;;
73733;SDS011;62039;50.000;9.064;2023-03-14T14:08:42;0.50;;;0.50;;
73733;SDS011;62039;50.000;9.064;2023-03-14T14:11:10;1.10;;;0.50;;
73733;SDS011;62039;50.000;9.064;2023-03-14T14:13:46;1.27;;;0.80;;
73733;SDS011;62039;50.000;9.064;2023-03-14T14:16:13;0.50;;;0.50;;
73733;SDS011;62039;50.000;9.064;2023-03-14T14:18:42;0.40;;;0.40;;
73733;SDS011;62039;50.000;9.064;2023-03-14T14:21:09;0.40;;;0.40;;
73733;SDS011;62039;50.000;9.064;2023-03-14T14:23:37;0.40;;;0.40;;
73733;SDS011;62039;50.000;9.064;2023-03-14T14:26:05;0.50;;;0.40;;
73733;SDS011;62039;50.000;9.064;2023-03-14T14:28:35;0.50;;;0.50;;
73733;SDS011;62039;50.000;9.064;2023-03-14T14:31:05;0.23;;;0.23;;
73733;SDS011;62039;50.000;9.064;2023-03-14T14:33:44;0.37;;;0.37;;
73733;SDS011;62039;50.000;9.064;2023-03-14T14:36:15;0.20;;;0.20;;
73733;SDS011;62039;50.000;9.064;2023-03-14T14:38:51;0.30;;;0.30;;
73733;SDS011;62039;50.000;9.064;2023-03-14T14:41:19;0.40;;;0.30;;
73733;SDS011;62039;50.000;9.064;2023-03-14T14:43:46;0.30;;;0.30;;
73733;SDS011;62039;50.000;9.064;2023-03-14T14:46:15;0.40;;;0.40;;
73733;SDS011;62039;50.000;9.064;2023-03-14T14:48:44;0.30;;;0.30;;
73733;SDS011;62039;50.000;9.064;2023-03-14T14:51:11;0.30;;;0.30;;
73733;SDS011;62039;50.000;9.064;2023-03-14T14:53:38;0.20;;;0.20;;
73733;SDS011;62039;50.000;9.064;2023-03-14T14:56:06;0.20;;;0.20;;
73733;SDS011;62039;50.000;9.064;2023-03-14T14:58:40;0.27;;;0.27;;
73733;SDS011;62039;50.000;9.064;2023-03-14T15:01:12;0.60;;;0.30;;
73733;SDS011;62039;50.000;9.064;2023-03-14T15:03:42;0.30;;;0.30;;
73733;SDS011;62039;50.000;9.064;2023-03-14T15:06:11;0.30;;;0.30;;
73733;SDS011;62039;50.000;9.064;2023-03-14T15:08:39;0.40;;;0.30;;
73733;SDS011;62039;50.000;9.064;2023-03-14T15:11:06;0.60;;;0.60;;
73733;SDS011;62039;50.000;9.064;2023-03-14T15:13:35;0.50;;;0.47;;